createdAt,value
2022-10-24T00:00:13.455Z,22.00
2022-10-24T00:03:24.386Z,21.00
2022-10-24T00:06:14.220Z,21.00
2022-10-24T00:09:04.302Z,21.70
2022-10-24T00:11:54.531Z,22.50
2022-10-24T00:14:44.452Z,21.00
2022-10-24T00:17:34.321Z,20.70
2022-10-24T00:20:24.241Z,20.80
2022-10-24T00:23:14.179Z,20.40
2022-10-24T00:26:04.316Z,20.00
2022-10-24T00:28:54.456Z,19.70
2022-10-24T00:31:44.418Z,20.70
2022-10-24T00:34:34.959Z,20.00
2022-10-24T00:37:24.802Z,20.80
2022-10-24T00:40:17.154Z,20.30
2022-10-24T00:43:14.992Z,19.90
2022-10-24T00:46:05.280Z,19.50
2022-10-24T00:48:55.547Z,19.90
2022-10-24T00:51:45.418Z,19.80
2022-10-24T00:54:35.366Z,19.40
2022-10-24T00:57:27.405Z,18.90
2022-10-24T01:00:20.304Z,18.90
2022-10-24T01:03:11.363Z,18.50
2022-10-24T01:06:27.191Z,19.30
2022-10-24T01:09:30.044Z,18.30
2022-10-24T01:12:27.950Z,19.10
2022-10-24T01:15:20.780Z,18.00
2022-10-24T01:18:14.866Z,18.00
2022-10-24T01:21:29.695Z,18.50
2022-10-24T01:24:42.549Z,17.60
2022-10-24T01:28:01.720Z,17.60
2022-10-24T01:30:55.832Z,18.10
2022-10-24T01:33:49.773Z,18.60
2022-10-24T01:36:42.137Z,18.10
2022-10-24T01:39:34.592Z,18.10
2022-10-24T01:42:24.728Z,17.70
2022-10-24T01:45:22.202Z,17.80
2022-10-24T01:48:16.393Z,16.10
2022-10-24T01:51:06.871Z,17.70
2022-10-24T01:53:56.962Z,17.80
2022-10-24T01:56:46.862Z,16.60
2022-10-24T01:59:43.817Z,17.10
2022-10-24T02:02:36.340Z,17.10
2022-10-24T02:05:28.862Z,17.20
2022-10-24T02:08:24.081Z,16.60
2022-10-24T02:11:14.161Z,15.70
2022-10-24T02:14:06.760Z,16.20
2022-10-24T02:16:56.639Z,15.10
2022-10-24T02:19:46.469Z,16.40
2022-10-24T02:22:42.267Z,15.70
2022-10-24T02:25:35.247Z,16.00
2022-10-24T02:28:26.764Z,15.50
2022-10-24T02:31:21.101Z,16.10
2022-10-24T02:37:01.969Z,15.90
2022-10-24T02:39:52.343Z,14.20
2022-10-24T02:42:42.725Z,14.80
2022-10-24T02:45:32.599Z,15.60
2022-10-24T02:48:25.161Z,15.80
2022-10-24T02:51:15.138Z,15.40
2022-10-24T02:54:05.725Z,15.60
2022-10-24T02:56:58.070Z,14.80
2022-10-24T02:59:47.959Z,13.90
2022-10-24T03:02:37.909Z,14.20
2022-10-24T03:05:27.950Z,14.20
2022-10-24T03:08:18.256Z,14.30
2022-10-24T03:11:08.535Z,14.30
2022-10-24T03:13:58.391Z,13.90
2022-10-24T03:16:48.521Z,14.00
2022-10-24T03:19:38.421Z,13.80
2022-10-24T03:22:30.636Z,14.10
2022-10-24T03:25:20.772Z,14.40
2022-10-24T03:28:11.362Z,13.60
2022-10-24T03:31:01.255Z,14.60
2022-10-24T03:33:51.107Z,13.00
2022-10-24T03:36:40.961Z,13.10
2022-10-24T03:39:30.812Z,13.50
2022-10-24T03:42:21.556Z,12.60
2022-10-24T03:45:12.185Z,13.90
2022-10-24T03:48:02.065Z,13.50
2022-10-24T03:50:52.243Z,14.00
2022-10-24T03:53:42.118Z,14.40
2022-10-24T03:56:32.395Z,14.30
2022-10-24T03:59:22.243Z,14.10
2022-10-24T04:02:13.347Z,14.80
2022-10-24T04:05:03.511Z,14.30
2022-10-24T04:07:53.373Z,13.90
2022-10-24T04:10:43.232Z,15.40
2022-10-24T04:13:33.433Z,15.70
2022-10-24T04:16:23.784Z,15.70
2022-10-24T04:19:16.548Z,16.10
2022-10-24T04:22:06.444Z,17.30
2022-10-24T04:24:56.300Z,18.10
2022-10-24T04:27:46.541Z,18.60
2022-10-24T04:30:36.391Z,17.60
2022-10-24T04:33:26.329Z,17.70
2022-10-24T04:36:16.477Z,19.20
2022-10-24T04:39:06.597Z,18.90
2022-10-24T04:41:56.420Z,18.70
2022-10-24T04:44:47.729Z,20.00
2022-10-24T04:47:38.433Z,19.30
2022-10-24T04:50:28.361Z,20.10
2022-10-24T04:53:18.196Z,21.40
2022-10-24T04:56:09.146Z,21.30
2022-10-24T04:58:58.992Z,20.10
2022-10-24T05:01:48.963Z,20.10
2022-10-24T05:04:38.864Z,21.30
2022-10-24T05:07:28.721Z,21.70
2022-10-24T05:10:18.990Z,21.60
2022-10-24T05:13:09.341Z,21.40
2022-10-24T05:16:00.100Z,21.20
2022-10-24T05:18:50.017Z,22.10
2022-10-24T05:21:40.644Z,22.20
2022-10-24T05:24:30.638Z,23.90
2022-10-24T05:27:23.965Z,23.40
2022-10-24T05:30:14.837Z,23.10
2022-10-24T05:33:04.827Z,23.30
2022-10-24T05:35:54.708Z,22.90
2022-10-24T05:38:44.580Z,22.90
2022-10-24T05:41:34.468Z,23.30
2022-10-24T05:44:26.285Z,22.70
2022-10-24T05:47:16.340Z,23.50
2022-10-24T05:50:09.167Z,23.80
2022-10-24T05:52:59.108Z,23.80
2022-10-24T05:55:48.940Z,23.40
2022-10-24T05:58:38.846Z,23.60
2022-10-24T06:01:31.567Z,23.90
2022-10-24T06:04:21.943Z,24.00
2022-10-24T06:07:12.218Z,22.90
2022-10-24T06:10:03.122Z,24.20
2022-10-24T06:12:53.445Z,24.50
2022-10-24T06:15:43.975Z,24.10
2022-10-24T06:18:34.488Z,25.90
2022-10-24T06:21:24.732Z,23.90
2022-10-24T06:24:14.536Z,25.20
2022-10-24T06:27:05.099Z,25.10
2022-10-24T06:29:55.415Z,24.60
2022-10-24T06:32:45.948Z,24.00
2022-10-24T06:35:36.272Z,24.30
2022-10-24T06:38:26.279Z,23.80
2022-10-24T06:41:16.971Z,24.70
2022-10-24T06:44:10.856Z,24.20
2022-10-24T06:47:01.053Z,23.20
2022-10-24T06:49:51.196Z,23.40
2022-10-24T06:52:41.416Z,24.30
2022-10-24T06:55:31.454Z,24.30
2022-10-24T06:58:21.408Z,23.00
2022-10-24T07:01:13.412Z,21.80
2022-10-24T07:04:04.681Z,22.10
2022-10-24T07:06:54.775Z,21.90
2022-10-24T07:09:45.068Z,21.80
2022-10-24T07:12:35.114Z,23.00
2022-10-24T07:15:25.357Z,23.80
2022-10-24T07:18:16.554Z,22.30
2022-10-24T07:21:08.736Z,22.90
2022-10-24T07:23:58.971Z,21.60
2022-10-24T07:26:49.225Z,22.20
2022-10-24T07:29:40.615Z,21.40
2022-10-24T07:32:30.535Z,21.50
2022-10-24T07:35:20.656Z,22.60
2022-10-24T07:38:10.662Z,23.30
2022-10-24T07:41:04.427Z,22.30
2022-10-24T07:43:55.171Z,20.10
2022-10-24T07:46:45.080Z,18.10
2022-10-24T07:49:34.989Z,20.90
2022-10-24T07:52:25.995Z,22.50
2022-10-24T07:55:16.115Z,20.90
2022-10-24T07:58:06.090Z,20.50
2022-10-24T08:00:56.086Z,18.60
2022-10-24T08:03:46.238Z,18.40
2022-10-24T08:06:36.499Z,18.30
2022-10-24T08:09:26.443Z,18.10
2022-10-24T08:12:16.380Z,17.40
2022-10-24T08:15:08.406Z,17.20
2022-10-24T08:17:58.586Z,17.30
2022-10-24T08:20:58.857Z,16.60
2022-10-24T08:23:51.396Z,17.10
2022-10-24T08:26:41.465Z,16.30
2022-10-24T08:29:31.484Z,16.00
2022-10-24T08:32:21.807Z,15.50
2022-10-24T08:35:15.201Z,16.40
2022-10-24T08:38:05.433Z,16.00
2022-10-24T08:40:55.741Z,15.70
2022-10-24T08:43:45.872Z,16.50
2022-10-24T08:46:48.287Z,15.50
2022-10-24T08:49:41.415Z,15.80
2022-10-24T08:52:35.008Z,14.80
2022-10-24T08:55:49.201Z,16.50
2022-10-24T08:58:42.087Z,15.40
2022-10-24T09:01:35.837Z,16.60
2022-10-24T09:04:28.870Z,15.70
2022-10-24T09:07:20.501Z,14.00
2022-10-24T09:10:15.540Z,14.70
2022-10-24T09:13:13.735Z,14.00
2022-10-24T09:16:04.067Z,14.10
2022-10-24T09:18:54.889Z,14.40
2022-10-24T09:21:45.096Z,13.20
2022-10-24T09:24:41.279Z,14.40
2022-10-24T09:27:33.395Z,13.70
2022-10-24T09:30:31.465Z,14.60
2022-10-24T09:33:28.477Z,13.30
2022-10-24T09:36:21.090Z,13.40
2022-10-24T09:39:30.944Z,13.20
2022-10-24T09:42:23.318Z,13.30
2022-10-24T09:45:30.908Z,13.40
2022-10-24T09:48:29.151Z,12.40
2022-10-24T09:51:26.642Z,10.40
2022-10-24T09:54:31.656Z,9.50
2022-10-24T09:57:24.173Z,9.40
2022-10-24T10:00:24.998Z,8.60
2022-10-24T10:03:25.357Z,9.50
2022-10-24T10:06:18.664Z,8.80
2022-10-24T10:09:13.912Z,8.80
2022-10-24T10:12:04.455Z,8.20
2022-10-24T10:14:54.422Z,8.10
2022-10-24T10:17:50.018Z,8.90
2022-10-24T10:20:41.158Z,8.60
2022-10-24T10:23:32.736Z,8.30
2022-10-24T10:26:27.912Z,8.00
2022-10-24T10:29:23.830Z,8.90
2022-10-24T10:35:15.428Z,7.70
2022-10-24T10:38:13.690Z,7.70
2022-10-24T10:41:06.998Z,8.20
2022-10-24T10:44:05.627Z,7.10
2022-10-24T10:47:03.295Z,9.80
2022-10-24T10:49:56.402Z,9.10
2022-10-24T10:52:48.579Z,8.20
2022-10-24T10:55:41.948Z,7.60
2022-10-24T10:58:39.215Z,7.00
2022-10-24T11:01:34.243Z,8.00
2022-10-24T11:04:30.381Z,7.90
2022-10-24T11:07:24.912Z,7.90
2022-10-24T11:10:17.148Z,7.30
2022-10-24T11:13:09.893Z,7.70
2022-10-24T11:16:02.682Z,7.40
2022-10-24T11:18:54.055Z,7.10
2022-10-24T11:21:44.601Z,7.60
2022-10-24T11:24:46.824Z,7.20
2022-10-24T11:27:40.329Z,6.70
2022-10-24T11:30:42.356Z,7.10
2022-10-24T11:33:36.384Z,6.70
2022-10-24T11:36:31.573Z,6.90
2022-10-24T11:39:24.757Z,7.10
2022-10-24T11:42:19.402Z,6.70
2022-10-24T11:45:12.909Z,6.70
2022-10-24T11:48:10.483Z,6.30
2022-10-24T11:51:03.303Z,7.40
2022-10-24T11:53:55.135Z,6.30
2022-10-24T11:56:47.100Z,6.30
2022-10-24T11:59:40.936Z,6.40
2022-10-24T12:03:22.589Z,6.40
2022-10-24T12:07:15.880Z,6.70
2022-10-24T12:10:38.015Z,6.40
2022-10-24T12:14:11.755Z,6.90
2022-10-24T12:17:17.499Z,6.50
2022-10-24T12:20:12.918Z,7.00
2022-10-24T12:23:03.443Z,6.70
2022-10-24T12:26:05.439Z,6.50
2022-10-24T12:28:56.771Z,6.30
2022-10-24T12:31:46.799Z,6.50
2022-10-24T12:34:49.198Z,6.60
2022-10-24T12:37:45.835Z,6.20
2022-10-24T12:40:54.812Z,6.30
2022-10-24T12:43:46.821Z,6.00
2022-10-24T12:46:55.635Z,6.70
2022-10-24T12:49:48.746Z,6.00
2022-10-24T12:53:14.480Z,6.90
2022-10-24T12:56:20.620Z,6.00
2022-10-24T12:59:21.024Z,5.70
2022-10-24T13:02:38.480Z,6.30
2022-10-24T13:05:54.400Z,6.00
2022-10-24T13:08:58.447Z,5.70
2022-10-24T13:12:03.412Z,5.60
2022-10-24T13:15:04.617Z,5.40
2022-10-24T13:18:05.430Z,5.20
2022-10-24T13:21:15.057Z,5.80
2022-10-24T13:24:22.474Z,5.70
2022-10-24T13:27:32.249Z,5.90
2022-10-24T13:30:27.292Z,5.60
2022-10-24T13:33:43.321Z,5.10
2022-10-24T13:36:33.324Z,6.00
2022-10-24T13:39:26.455Z,5.90
2022-10-24T13:42:28.615Z,5.20
2022-10-24T13:45:26.437Z,5.10
2022-10-24T13:48:19.382Z,4.80
2022-10-24T13:51:13.727Z,6.00
2022-10-24T13:54:11.596Z,5.70
2022-10-24T13:57:02.351Z,5.60
2022-10-24T13:59:58.460Z,5.50
2022-10-24T14:02:49.012Z,5.40
2022-10-24T14:05:44.828Z,5.30
2022-10-24T14:08:36.604Z,6.20
2022-10-24T14:11:28.010Z,5.20
2022-10-24T14:14:28.122Z,5.60
2022-10-24T14:17:23.636Z,5.40
2022-10-24T14:20:23.604Z,5.50
2022-10-24T14:23:26.302Z,5.50
2022-10-24T14:26:18.722Z,5.50
2022-10-24T14:29:22.660Z,5.30
2022-10-24T14:32:15.497Z,5.20
2022-10-24T14:35:06.851Z,5.40
2022-10-24T14:37:56.748Z,5.60
2022-10-24T14:40:49.442Z,5.20
2022-10-24T14:43:43.540Z,4.90
2022-10-24T14:46:36.526Z,5.50
2022-10-24T14:49:33.130Z,5.00
2022-10-24T14:52:35.761Z,4.80
2022-10-24T14:55:26.226Z,5.00
2022-10-24T14:58:23.879Z,5.30
2022-10-24T15:01:18.650Z,5.10
2022-10-24T15:04:23.031Z,4.90
2022-10-24T15:07:28.787Z,5.50
2022-10-24T15:10:29.481Z,4.90
2022-10-24T15:13:20.801Z,4.80
2022-10-24T15:16:22.275Z,4.90
2022-10-24T15:19:17.159Z,4.60
2022-10-24T15:22:13.796Z,4.80
2022-10-24T15:25:06.086Z,4.60
2022-10-24T15:27:59.005Z,5.40
2022-10-24T15:30:48.864Z,5.20
2022-10-24T15:36:32.974Z,5.10
2022-10-24T15:39:24.575Z,4.80
2022-10-24T15:42:16.524Z,4.40
2022-10-24T15:45:14.663Z,4.60
2022-10-24T15:48:04.733Z,4.40
2022-10-24T15:50:55.158Z,4.70
2022-10-24T15:53:45.614Z,4.40
2022-10-24T15:56:35.556Z,4.70
2022-10-24T15:59:26.113Z,5.00
2022-10-24T16:02:19.785Z,4.80
2022-10-24T16:05:16.150Z,5.00
2022-10-24T16:08:06.272Z,4.70
2022-10-24T16:10:56.971Z,4.50
2022-10-24T16:13:47.062Z,4.60
2022-10-24T16:16:37.290Z,4.80
2022-10-24T16:19:27.742Z,4.70
2022-10-24T16:22:17.922Z,4.90
2022-10-24T16:25:10.089Z,4.70
2022-10-24T16:28:00.056Z,4.80
2022-10-24T16:30:50.010Z,4.90
2022-10-24T16:33:40.108Z,4.90
2022-10-24T16:36:30.290Z,4.90
2022-10-24T16:39:20.316Z,5.10
2022-10-24T16:42:10.200Z,4.90
2022-10-24T16:45:01.848Z,5.10
2022-10-24T16:47:52.233Z,5.40
2022-10-24T16:50:46.224Z,5.30
2022-10-24T16:53:37.061Z,5.30
2022-10-24T16:56:27.328Z,5.10
2022-10-24T16:59:17.507Z,4.70
2022-10-24T17:02:09.447Z,4.90
2022-10-24T17:04:59.468Z,5.00
2022-10-24T17:07:49.595Z,4.90
2022-10-24T17:10:39.851Z,5.10
2022-10-24T17:13:30.038Z,4.90
2022-10-24T17:16:20.564Z,5.40
2022-10-24T17:19:18.008Z,5.80
2022-10-24T17:22:10.163Z,5.80
2022-10-24T17:25:02.178Z,6.00
2022-10-24T17:27:52.879Z,6.80
2022-10-24T17:30:43.406Z,9.40
2022-10-24T17:33:36.296Z,9.40
2022-10-24T17:36:30.199Z,6.70
2022-10-24T17:42:19.175Z,7.30
2022-10-24T17:45:15.239Z,9.80
2022-10-24T17:50:56.427Z,8.60
2022-10-24T17:53:46.726Z,9.30
2022-10-24T17:56:36.916Z,10.30
2022-10-24T17:59:26.995Z,10.10
2022-10-24T18:02:17.119Z,10.30
2022-10-24T18:05:08.549Z,11.00
2022-10-24T18:07:58.499Z,10.70
2022-10-24T18:10:49.589Z,11.10
2022-10-24T18:13:39.768Z,10.70
2022-10-24T18:16:30.709Z,10.70
2022-10-24T18:19:21.112Z,10.70
2022-10-24T18:22:11.047Z,10.70
2022-10-24T18:25:01.396Z,10.30
2022-10-24T18:27:52.520Z,9.80
2022-10-24T18:30:42.737Z,10.20
2022-10-24T18:33:34.610Z,10.50
2022-10-24T18:36:26.410Z,9.90
2022-10-24T18:39:16.651Z,10.20
2022-10-24T18:42:11.578Z,10.30
2022-10-24T18:45:04.082Z,10.00
2022-10-24T18:47:55.336Z,11.40
2022-10-24T18:50:45.365Z,11.50
2022-10-24T18:53:38.902Z,11.30
2022-10-24T18:56:29.541Z,12.00
2022-10-24T18:59:21.737Z,12.20
2022-10-24T19:02:25.667Z,11.80
2022-10-24T19:05:20.897Z,11.50
2022-10-24T19:08:16.778Z,12.50
2022-10-24T19:14:04.354Z,12.50
2022-10-24T19:16:54.387Z,13.40
2022-10-24T19:19:44.284Z,12.70
2022-10-24T19:22:34.213Z,13.60
2022-10-24T19:25:24.186Z,13.90
2022-10-24T19:28:16.616Z,14.00
2022-10-24T19:31:08.067Z,13.10
2022-10-24T19:33:58.038Z,12.80
2022-10-24T19:36:48.017Z,13.30
2022-10-24T19:39:39.123Z,12.50
2022-10-24T19:42:29.125Z,12.20
2022-10-24T19:45:21.532Z,12.10
2022-10-24T19:48:15.189Z,12.50
2022-10-24T19:51:11.363Z,12.00
2022-10-24T19:54:01.316Z,12.40
2022-10-24T19:56:52.472Z,11.70
2022-10-24T19:59:42.596Z,11.80
2022-10-24T20:02:33.885Z,12.10
2022-10-24T20:05:23.804Z,12.20
2022-10-24T20:08:13.691Z,11.20
2022-10-24T20:11:04.379Z,11.40
2022-10-24T20:13:54.360Z,11.30
2022-10-24T20:16:44.582Z,11.30
2022-10-24T20:19:34.456Z,11.80
2022-10-24T20:22:25.283Z,10.70
2022-10-24T20:25:15.348Z,10.30
2022-10-24T20:28:06.233Z,9.70
2022-10-24T20:30:56.141Z,9.60
2022-10-24T20:33:47.165Z,9.40
2022-10-24T20:36:38.302Z,9.20
2022-10-24T20:39:28.190Z,9.20
2022-10-24T20:42:20.290Z,9.20
2022-10-24T20:45:11.625Z,9.00
2022-10-24T20:48:01.627Z,8.70
2022-10-24T20:50:51.552Z,8.90
2022-10-24T20:53:41.783Z,9.20
2022-10-24T20:56:31.697Z,9.00
2022-10-24T20:59:22.209Z,8.60
2022-10-24T21:02:12.170Z,9.20
2022-10-24T21:05:02.476Z,9.00
2022-10-24T21:07:53.106Z,8.70
2022-10-24T21:10:43.007Z,9.00
2022-10-24T21:13:32.963Z,9.10
2022-10-24T21:16:23.461Z,9.20
2022-10-24T21:19:13.369Z,8.70
2022-10-24T21:22:03.349Z,8.60
2022-10-24T21:24:53.222Z,8.60
2022-10-24T21:27:43.081Z,7.80
2022-10-24T21:30:32.934Z,8.20
2022-10-24T21:33:23.171Z,7.60
2022-10-24T21:36:15.138Z,8.30
2022-10-24T21:39:05.135Z,8.70
2022-10-24T21:41:54.999Z,8.10
2022-10-24T21:44:44.856Z,8.30
2022-10-24T21:47:34.841Z,8.80
2022-10-24T21:50:24.764Z,8.50
2022-10-24T21:53:14.586Z,7.90
2022-10-24T21:56:06.218Z,8.00
2022-10-24T21:58:59.230Z,8.00
2022-10-24T22:01:50.304Z,7.90
2022-10-24T22:04:40.219Z,8.40
2022-10-24T22:07:30.565Z,7.20
2022-10-24T22:10:20.432Z,7.10
2022-10-24T22:13:10.304Z,7.80
2022-10-24T22:16:00.198Z,7.60
2022-10-24T22:18:51.524Z,7.40
2022-10-24T22:21:43.281Z,7.40
2022-10-24T22:24:33.165Z,7.30
2022-10-24T22:27:24.531Z,7.70
2022-10-24T22:30:15.383Z,6.90
2022-10-24T22:33:07.148Z,6.90
2022-10-24T22:35:59.881Z,7.20
2022-10-24T22:38:54.060Z,7.20
2022-10-24T22:41:45.649Z,7.20
2022-10-24T22:44:37.346Z,6.90
2022-10-24T22:47:39.286Z,7.00
2022-10-24T22:50:51.369Z,7.10
2022-10-24T22:53:42.352Z,6.80
2022-10-24T22:56:36.166Z,6.80
2022-10-24T22:59:28.005Z,7.20
2022-10-24T23:02:27.529Z,7.10
2022-10-24T23:05:28.855Z,6.50
2022-10-24T23:08:27.960Z,6.60
2022-10-24T23:11:19.964Z,6.80
2022-10-24T23:14:12.305Z,6.30
2022-10-24T23:17:03.281Z,6.70
2022-10-24T23:19:55.001Z,7.10
2022-10-24T23:22:44.860Z,6.70
2022-10-24T23:25:37.386Z,6.50
2022-10-24T23:28:33.566Z,6.70
2022-10-24T23:31:25.206Z,6.60
2022-10-24T23:34:17.410Z,6.50
2022-10-24T23:37:10.450Z,6.60
2022-10-24T23:40:03.306Z,6.00
2022-10-24T23:42:54.688Z,6.10
2022-10-24T23:45:49.126Z,6.40
2022-10-24T23:48:48.529Z,6.30
2022-10-24T23:51:41.587Z,6.20
2022-10-24T23:54:34.294Z,6.20
2022-10-24T23:57:25.904Z,5.40
